Etusivu
METAR-TAF:

METAR-TAF

Lentoasemat :

Nuukin lentoasema

Nuuk, Grönlanti

Leveyspiiri: 64-10N, Pituuspiiri: 051-45W, korkeus merenpinnasta: 80 m

Tämänhetkinen sää

Tämä raportti tehtiin 16 minuuttia sitten, kello 06.50 UTC
Tuuli 15 kn pohjoisesta
Lämpötila -12°C
Kosteus 66%
Ilmanpaine 1036 hPa
Näkyvyys 10 km tai enemmän

METAR: BGGH 020650Z AUTO 01015KT 9999NDV NCD M12/M17 Q1036

Aika: 05:06 (07:06 UTC)

Sääennuste

Tämä raportti tehtiin 12 tuntia ja 40 minuuttia sitten, kello 18.26 UTC
Ennuste voimassa 01. päivästä klo 18 UTC - 01. päivään klo 22 UTC
Tuuli 14 kn pohjoisesta
Näkyvyys 10 km tai enemmän
Muutamia pilviä 1500 ft:n korkeudessa

TAF: BGGH 011826Z 0118/0122 36014KT 9999 FEW015

Säähavainnot ja -ennusteet yli 4000 lentoasemalta (METAR- ja TAF-raportit).

Käytössä olevat sääasemat on merkitty karttaan keltaisilla ja punaisilla pisteillä.

Aseta hiiri pisteen päälle nähdäksesi sääaseman nimen.

Klikkaa sitten nähdäksesi säähavainnot ja -ennusteet.

Kartan vaihtaminen: klikkaa mustalla rastilla varustettuja vihreitä pisteitä, niin voit zoomata sisään; viivalla varustettua vihreää pistettä, niin voit zoomata ulos tai vihreitä nuolia, niin pääset viereisille kartoille.


METAR-TAF: